Time;durP1;ratioP1;P1;durP2;ratioP2;P2;SDS_P1;SDS_P2;PMS_P1;PMS_P2;Temp;Humidity;BMP_temperature;BMP_pressure;BME280_temperature;BME280_humidity;BME280_pressure;Samples;Min_cycle;Max_cycle;Signal;HPM_P1;HPM_P2
2023/10/14 02:55:57;;;;;;;16.38;2.00;;;11.20;99.90;;;;;;6168168;23;20025;-78
2023/10/14 02:58:23;;;;;;;10.80;1.73;;;11.20;99.90;;;;;;6159571;23;20092;-81
2023/10/14 03:00:58;;;;;;;17.15;2.60;;;11.20;99.90;;;;;;6159319;23;20450;-77
2023/10/14 03:03:29;;;;;;;10.68;1.50;;;11.20;99.90;;;;;;6160551;23;20080;-80
2023/10/14 03:05:55;;;;;;;11.35;2.05;;;11.20;99.90;;;;;;6144175;23;20017;-79
2023/10/14 03:08:21;;;;;;;14.45;1.52;;;11.10;99.90;;;;;;6129886;23;20021;-81
2023/10/14 03:10:55;;;;;;;12.15;2.05;;;11.20;99.90;;;;;;6130009;23;20085;-80
2023/10/14 03:13:22;;;;;;;14.45;1.67;;;11.20;99.90;;;;;;6130511;23;20020;-81
2023/10/14 03:15:52;;;;;;;14.63;2.60;;;11.20;99.90;;;;;;6130329;23;20435;-79
2023/10/14 03:18:18;;;;;;;15.63;2.03;;;11.30;99.90;;;;;;6129745;23;20013;-76
2023/10/14 03:23:23;;;;;;;10.25;1.73;;;11.30;99.90;;;;;;6129729;23;20052;-80
2023/10/14 03:25:50;;;;;;;10.68;1.50;;;11.30;99.90;;;;;;6129659;23;20068;-78
2023/10/14 03:28:19;;;;;;;8.88;1.45;;;11.30;99.90;;;;;;6129684;23;20017;-81
2023/10/14 03:31:00;;;;;;;14.43;1.85;;;11.40;99.90;;;;;;6129912;23;20045;-77
2023/10/14 03:33:27;;;;;;;10.50;1.50;;;11.40;99.90;;;;;;6129592;23;20447;-78
2023/10/14 03:36:03;;;;;;;14.10;1.92;;;11.40;99.90;;;;;;6129558;23;20010;-77
2023/10/14 03:41:03;;;;;;;9.35;2.22;;;11.40;99.90;;;;;;6129540;23;20017;-77
2023/10/14 03:43:48;;;;;;;14.63;1.98;;;11.40;99.90;;;;;;6155812;23;20009;-79
2023/10/14 03:46:15;;;;;;;14.43;1.58;;;11.40;99.90;;;;;;6129583;23;20009;-79
2023/10/14 03:48:48;;;;;;;9.75;1.92;;;11.40;99.90;;;;;;6130434;23;20021;-81
2023/10/14 03:51:24;;;;;;;9.30;1.38;;;11.40;99.90;;;;;;6105275;23;20084;-82
2023/10/14 03:53:54;;;;;;;13.07;2.95;;;11.40;99.90;;;;;;6129647;23;20084;-80
2023/10/14 03:56:27;;;;;;;13.07;1.75;;;11.40;99.90;;;;;;6155353;23;20013;-79
2023/10/14 03:58:55;;;;;;;12.80;2.08;;;11.40;99.90;;;;;;6129530;23;20375;-81
2023/10/14 04:01:23;;;;;;;13.25;1.73;;;11.40;99.90;;;;;;6129531;23;20343;-78
2023/10/14 04:03:52;;;;;;;12.18;1.70;;;11.40;99.90;;;;;;6155703;23;20010;-79
2023/10/14 04:06:19;;;;;;;11.25;1.48;;;11.40;99.90;;;;;;6130161;23;20468;-78
2023/10/14 04:08:47;;;;;;;10.32;1.55;;;11.40;99.90;;;;;;6131237;23;20088;-77
2023/10/14 04:11:38;;;;;;;12.90;1.50;;;11.40;99.90;;;;;;6131390;23;20010;-77
2023/10/14 04:14:07;;;;;;;13.93;1.63;;;11.40;99.90;;;;;;6131543;23;20009;-80
2023/10/14 04:19:27;;;;;;;13.65;1.85;;;11.40;99.90;;;;;;6131287;23;20017;-78
2023/10/14 04:22:39;;;;;;;17.10;2.00;;;11.40;99.90;;;;;;6131360;23;20020;-77
2023/10/14 04:27:17;;;;;;;11.88;2.03;;;11.40;99.90;;;;;;6131197;23;20080;-77
2023/10/14 04:29:53;;;;;;;17.25;1.95;;;11.40;99.90;;;;;;6130973;23;20029;-76
2023/10/14 04:32:25;;;;;;;20.75;3.20;;;11.40;99.90;;;;;;6131269;23;20439;-82
2023/10/14 04:34:54;;;;;;;14.93;2.05;;;11.40;99.90;;;;;;6106737;23;20016;-79
2023/10/14 04:37:21;;;;;;;10.07;2.00;;;11.30;99.90;;;;;;6131217;23;20017;-77
2023/10/14 04:39:47;;;;;;;13.30;1.65;;;11.30;99.90;;;;;;6131122;23;20013;-81
2023/10/14 04:44:55;;;;;;;29.30;4.28;;;11.30;99.90;;;;;;6130934;23;20025;-78
2023/10/14 04:47:55;;;;;;;11.70;1.80;;;11.30;99.90;;;;;;6131312;23;20381;-78
2023/10/14 04:50:14;;;;;;;16.15;2.05;;;11.30;99.90;;;;;;6126473;23;20346;-80
2023/10/14 04:52:48;;;;;;;10.98;1.92;;;11.30;99.90;;;;;;6157547;23;20383;-79
2023/10/14 04:55:25;;;;;;;14.40;2.45;;;11.40;99.90;;;;;;6106389;23;20014;-80
2023/10/14 04:58:08;;;;;;;11.88;2.00;;;11.40;99.90;;;;;;6131045;23;20013;-77
2023/10/14 05:00:41;;;;;;;12.98;2.05;;;11.40;99.90;;;;;;6131030;23;20028;-78
2023/10/14 05:03:14;;;;;;;20.88;2.83;;;11.40;99.90;;;;;;6130995;23;20025;-78
2023/10/14 05:05:49;;;;;;;13.15;1.83;;;11.40;99.90;;;;;;6130841;23;20049;-79
2023/10/14 05:08:21;;;;;;;14.70;2.13;;;11.50;99.90;;;;;;6131067;23;20023;-82
2023/10/14 05:10:51;;;;;;;10.38;1.92;;;11.50;99.90;;;;;;6130819;23;20018;-80
2023/10/14 05:13:19;;;;;;;14.32;1.98;;;11.40;99.90;;;;;;6130864;23;20021;-77
2023/10/14 05:15:53;;;;;;;20.65;2.38;;;11.40;99.90;;;;;;6131564;23;20319;-79
2023/10/14 05:18:27;;;;;;;15.68;1.73;;;11.40;99.90;;;;;;6130535;23;20010;-78
2023/10/14 05:21:12;;;;;;;11.15;1.70;;;11.40;99.90;;;;;;6131887;23;20014;-80
2023/10/14 05:23:38;;;;;;;12.85;1.60;;;11.30;99.90;;;;;;6130907;23;20014;-77
2023/10/14 05:26:06;;;;;;;14.52;1.90;;;11.30;99.90;;;;;;6130900;23;20394;-78
2023/10/14 05:28:36;;;;;;;10.50;1.77;;;11.30;99.90;;;;;;6130573;23;20010;-80
2023/10/14 05:31:08;;;;;;;20.48;2.17;;;11.30;99.90;;;;;;6106090;23;20045;-77
2023/10/14 05:33:37;;;;;;;16.15;2.40;;;11.30;99.90;;;;;;6131108;23;20005;-80
2023/10/14 05:36:05;;;;;;;17.45;2.10;;;11.20;99.90;;;;;;6130455;23;20010;-81
2023/10/14 05:38:31;;;;;;;10.82;1.20;;;11.20;99.90;;;;;;6130633;23;20016;-78
2023/10/14 05:41:00;;;;;;;8.20;1.48;;;11.20;99.90;;;;;;6130538;23;20010;-79
2023/10/14 05:43:26;;;;;;;11.10;1.10;;;11.20;99.90;;;;;;6156738;23;20331;-80
2023/10/14 05:45:52;;;;;;;8.50;1.30;;;11.20;99.90;;;;;;6156784;23;20065;-79
2023/10/14 05:48:18;;;;;;;11.18;1.20;;;11.20;99.90;;;;;;6130592;23;20468;-81
2023/10/14 05:50:44;;;;;;;12.85;1.60;;;11.20;99.90;;;;;;6157260;23;20049;-78
2023/10/14 05:53:11;;;;;;;17.63;2.00;;;11.20;99.90;;;;;;6130569;23;20466;-79
2023/10/14 05:55:39;;;;;;;8.23;1.17;;;11.10;99.90;;;;;;6130359;23;20084;-80
2023/10/14 05:58:06;;;;;;;9.25;1.13;;;11.10;99.90;;;;;;6130452;23;20424;-78
2023/10/14 06:00:34;;;;;;;11.25;1.52;;;11.10;99.90;;;;;;6129858;23;20455;-78
2023/10/14 06:03:00;;;;;;;7.00;1.50;;;11.10;99.90;;;;;;6130308;23;20016;-79
2023/10/14 06:05:31;;;;;;;7.28;1.42;;;11.10;99.90;;;;;;6130028;23;20009;-76
2023/10/14 06:08:00;;;;;;;9.95;1.17;;;11.10;99.90;;;;;;6105678;23;20088;-79
2023/10/14 06:10:29;;;;;;;14.05;1.00;;;11.10;99.90;;;;;;6130190;23;20343;-80
2023/10/14 06:12:56;;;;;;;7.90;1.05;;;11.00;99.90;;;;;;6131298;23;20018;-78
2023/10/14 06:15:23;;;;;;;6.47;1.17;;;11.00;99.90;;;;;;6130241;23;20009;-77
2023/10/14 06:17:54;;;;;;;9.35;1.60;;;11.10;99.90;;;;;;6130130;23;20084;-80
2023/10/14 06:20:21;;;;;;;6.95;0.93;;;11.00;99.90;;;;;;6130232;23;20025;-78
2023/10/14 06:22:47;;;;;;;8.27;1.33;;;11.00;99.90;;;;;;6156908;23;20005;-79
2023/10/14 06:25:16;;;;;;;9.45;1.45;;;11.00;99.90;;;;;;6130135;23;20453;-81
2023/10/14 06:27:45;;;;;;;10.57;1.10;;;11.00;99.90;;;;;;6130191;23;20416;-82
2023/10/14 06:30:19;;;;;;;10.63;1.30;;;11.00;99.90;;;;;;6155721;23;20020;-76
2023/10/14 06:32:48;;;;;;;8.82;2.00;;;11.00;99.90;;;;;;6106404;23;20444;-78
2023/10/14 06:35:17;;;;;;;12.02;1.90;;;10.90;99.90;;;;;;6156795;23;20013;-80
2023/10/14 06:37:45;;;;;;;11.57;1.50;;;10.90;99.90;;;;;;6129977;23;20041;-78
2023/10/14 06:40:18;;;;;;;8.43;1.38;;;10.90;99.90;;;;;;6105543;23;20009;-79
2023/10/14 06:42:44;;;;;;;8.00;1.38;;;10.90;99.90;;;;;;6130023;23;20390;-77
2023/10/14 06:45:13;;;;;;;10.32;1.50;;;10.90;99.90;;;;;;6156513;23;20067;-78
2023/10/14 06:47:51;;;;;;;12.13;2.33;;;10.90;99.90;;;;;;6156338;23;20085;-80
2023/10/14 06:50:23;;;;;;;7.05;1.10;;;10.90;99.90;;;;;;6129836;23;20439;-79
2023/10/14 06:52:50;;;;;;;14.82;2.08;;;10.90;99.90;;;;;;6130181;23;20009;-79
2023/10/14 06:55:21;;;;;;;7.95;1.40;;;10.90;99.90;;;;;;6129884;23;20032;-81
2023/10/14 06:57:53;;;;;;;9.23;1.50;;;10.90;99.90;;;;;;6129825;23;20072;-78
2023/10/14 07:00:25;;;;;;;20.80;2.00;;;11.00;99.90;;;;;;6105622;23;20080;-78
2023/10/14 07:02:53;;;;;;;12.98;2.30;;;11.00;99.90;;;;;;6129832;23;20052;-80
2023/10/14 07:05:20;;;;;;;12.93;1.85;;;11.00;99.90;;;;;;6130660;23;20013;-78
2023/10/14 07:07:47;;;;;;;11.40;1.70;;;11.00;99.90;;;;;;6156354;23;20501;-81
2023/10/14 07:10:13;;;;;;;11.15;2.08;;;11.10;99.90;;;;;;6129649;23;20024;-78
2023/10/14 07:12:39;;;;;;;13.52;1.60;;;11.10;99.90;;;;;;6129716;23;20010;-75
2023/10/14 07:15:12;;;;;;;19.75;2.33;;;11.20;99.90;;;;;;6129802;23;20461;-77
2023/10/14 07:17:40;;;;;;;15.00;1.80;;;11.30;99.90;;;;;;6130713;23;20021;-77
2023/10/14 07:20:07;;;;;;;18.88;3.03;;;11.30;99.90;;;;;;6130060;23;20407;-80
2023/10/14 07:22:33;;;;;;;15.57;1.77;;;11.40;99.90;;;;;;6105303;23;20013;-79
2023/10/14 07:24:58;;;;;;;17.10;2.65;;;11.40;99.90;;;;;;6129789;23;20407;-76
2023/10/14 07:27:24;;;;;;;15.30;1.80;;;11.50;99.90;;;;;;6129809;23;20026;-77
2023/10/14 07:29:50;;;;;;;13.82;2.00;;;11.60;99.90;;;;;;6129579;23;20020;-78
2023/10/14 07:32:16;;;;;;;12.57;2.25;;;11.60;99.90;;;;;;6130101;23;20016;-79
2023/10/14 07:34:42;;;;;;;14.88;2.63;;;11.60;99.90;;;;;;6129561;23;20010;-79
2023/10/14 07:37:09;;;;;;;12.73;1.98;;;11.70;99.90;;;;;;6129888;23;20317;-83
2023/10/14 07:39:36;;;;;;;12.88;2.05;;;11.80;99.90;;;;;;6105256;23;20092;-82
2023/10/14 07:42:09;;;;;;;14.90;2.10;;;11.80;99.90;;;;;;6156444;23;20025;-78
2023/10/14 07:44:35;;;;;;;13.73;2.10;;;11.90;99.90;;;;;;6130075;23;20095;-78
2023/10/14 07:47:05;;;;;;;9.75;1.73;;;12.00;99.90;;;;;;6129717;23;20014;-81
2023/10/14 07:49:32;;;;;;;12.05;1.70;;;12.00;99.90;;;;;;6128581;23;20081;-80
2023/10/14 07:52:00;;;;;;;9.85;2.58;;;12.10;99.90;;;;;;6126995;23;20491;-78
2023/10/14 07:54:29;;;;;;;9.77;1.27;;;12.10;99.90;;;;;;6126990;23;20023;-79
2023/10/14 07:56:55;;;;;;;11.63;2.15;;;12.20;99.90;;;;;;6102593;23;20088;-77
2023/10/14 07:59:20;;;;;;;14.02;1.90;;;12.20;99.90;;;;;;6103045;23;20056;-76
2023/10/14 08:01:47;;;;;;;8.82;1.48;;;12.30;99.90;;;;;;6127335;23;20017;-79
2023/10/14 08:04:15;;;;;;;13.00;2.15;;;12.30;99.90;;;;;;6153592;23;20021;-78
2023/10/14 08:06:43;;;;;;;11.05;1.98;;;12.40;99.90;;;;;;6128720;23;20094;-81
2023/10/14 08:12:05;;;;;;;11.70;2.00;;;12.50;99.90;;;;;;6111135;23;20088;-80
2023/10/14 08:14:31;;;;;;;10.27;1.83;;;12.50;99.90;;;;;;6129443;23;20068;-79
2023/10/14 08:16:57;;;;;;;10.80;2.25;;;12.60;99.90;;;;;;6129627;23;20017;-79
2023/10/14 08:19:23;;;;;;;15.05;1.70;;;12.70;99.90;;;;;;6129404;23;20329;-77
2023/10/14 08:21:50;;;;;;;9.90;1.75;;;12.70;99.90;;;;;;6129298;23;20041;-80
2023/10/14 08:24:18;;;;;;;10.75;1.58;;;12.80;99.90;;;;;;6129547;23;20025;-80
2023/10/14 08:26:46;;;;;;;9.30;1.98;;;12.80;99.90;;;;;;6129285;23;20017;-81
2023/10/14 08:29:12;;;;;;;9.95;1.80;;;12.80;99.90;;;;;;6104947;23;20526;-78
2023/10/14 08:31:38;;;;;;;10.50;1.83;;;12.80;99.90;;;;;;6129522;23;20014;-78
2023/10/14 08:34:07;;;;;;;15.20;2.03;;;12.80;99.90;;;;;;6129360;23;20092;-76
2023/10/14 08:36:33;;;;;;;9.25;1.40;;;12.90;99.90;;;;;;6129386;23;20009;-77
2023/10/14 08:38:58;;;;;;;8.05;1.05;;;12.90;99.90;;;;;;6105037;23;20084;-81
2023/10/14 08:41:26;;;;;;;8.57;1.50;;;13.00;99.90;;;;;;6129623;23;20028;-78
2023/10/14 08:43:56;;;;;;;8.40;1.10;;;13.00;99.90;;;;;;6129265;23;20347;-78
2023/10/14 08:46:29;;;;;;;4.65;0.90;;;13.10;99.90;;;;;;6129249;23;20024;-80
2023/10/14 08:48:55;;;;;;;7.65;1.58;;;13.10;99.90;;;;;;6129176;23;20028;-80
2023/10/14 08:51:24;;;;;;;9.13;1.02;;;13.20;99.90;;;;;;6155270;23;20010;-78
2023/10/14 08:53:53;;;;;;;7.55;1.17;;;13.30;99.90;;;;;;6156905;23;20060;-79
2023/10/14 08:56:19;;;;;;;7.40;1.27;;;13.30;99.90;;;;;;6130776;23;20060;-78
2023/10/14 08:58:48;;;;;;;6.95;0.77;;;13.40;99.90;;;;;;6130829;23;20063;-80
2023/10/14 09:01:16;;;;;;;11.10;0.90;;;13.50;99.90;;;;;;6130961;23;20080;-79
2023/10/14 09:03:49;;;;;;;7.35;1.05;;;13.50;99.90;;;;;;6130885;23;20069;-79
2023/10/14 09:06:17;;;;;;;8.90;1.73;;;13.50;99.90;;;;;;6106622;23;20036;-77
2023/10/14 09:08:47;;;;;;;5.10;1.10;;;13.60;99.90;;;;;;6130792;23;20013;-79
2023/10/14 09:11:33;;;;;;;11.20;1.10;;;13.60;99.90;;;;;;6130880;23;20084;-77
2023/10/14 09:14:04;;;;;;;8.30;1.08;;;13.70;99.90;;;;;;6106886;23;20013;-81
2023/10/14 09:16:34;;;;;;;11.35;1.73;;;13.70;99.90;;;;;;6130657;23;20016;-80
2023/10/14 09:19:01;;;;;;;13.65;2.03;;;13.80;99.90;;;;;;6157445;23;20013;-78
2023/10/14 09:21:28;;;;;;;8.23;0.90;;;13.90;99.90;;;;;;6156990;23;20096;-77
2023/10/14 09:23:54;;;;;;;7.38;1.15;;;13.90;99.90;;;;;;6130840;23;20014;-78
2023/10/14 09:26:21;;;;;;;6.57;1.13;;;13.90;99.90;;;;;;6157085;23;20010;-81
2023/10/14 09:28:48;;;;;;;9.10;1.10;;;14.00;99.90;;;;;;6155997;23;20009;-81
2023/10/14 09:31:14;;;;;;;13.57;1.45;;;14.10;99.90;;;;;;6130404;23;20347;-78
2023/10/14 09:33:43;;;;;;;7.32;1.10;;;14.20;99.90;;;;;;6130690;23;20041;-80
2023/10/14 09:36:11;;;;;;;14.35;1.95;;;14.30;99.90;;;;;;6130548;23;20021;-78
2023/10/14 09:38:39;;;;;;;7.53;1.10;;;14.20;99.90;;;;;;6132993;23;20021;-76
2023/10/14 09:41:07;;;;;;;7.28;1.20;;;14.20;99.90;;;;;;6134379;23;20451;-75
2023/10/14 09:43:42;;;;;;;7.85;1.00;;;14.20;99.90;;;;;;6131043;23;20506;-75
2023/10/14 09:46:12;;;;;;;;;;;14.20;99.90;;;;;;6131145;23;20013;-77
2023/10/14 09:48:39;;;;;;;7.65;1.40;;;14.00;99.90;;;;;;6157312;23;19912;-78
2023/10/14 09:51:07;;;;;;;11.95;1.55;;;13.80;99.90;;;;;;6131180;23;20022;-80
2023/10/14 09:53:36;;;;;;;8.10;1.10;;;13.70;99.90;;;;;;6130488;23;20005;-80
2023/10/14 09:56:08;;;;;;;10.43;1.52;;;13.80;99.90;;;;;;6105993;23;20087;-79
2023/10/14 09:58:43;;;;;;;10.25;1.42;;;13.90;99.90;;;;;;6130587;23;20064;-79
2023/10/14 10:01:16;;;;;;;11.77;1.48;;;14.10;99.90;;;;;;6105973;23;20006;-77
2023/10/14 10:03:54;;;;;;;7.53;1.38;;;14.10;99.90;;;;;;6130184;23;20022;-77
2023/10/14 10:06:38;;;;;;;10.65;1.20;;;14.20;99.90;;;;;;6130001;23;20010;-77
2023/10/14 10:09:41;;;;;;;10.05;1.33;;;14.10;99.90;;;;;;6105594;23;20040;-76
2023/10/14 10:12:10;;;;;;;11.52;1.52;;;14.20;99.90;;;;;;6130226;23;20080;-76
2023/10/14 10:14:42;;;;;;;12.75;1.60;;;14.30;99.90;;;;;;6130297;23;20009;-78
2023/10/14 10:17:11;;;;;;;10.18;1.42;;;14.60;99.90;;;;;;6130179;23;20016;-80
2023/10/14 10:20:16;;;;;;;9.02;1.10;;;14.70;99.90;;;;;;6130102;23;20428;-78
2023/10/14 10:22:45;;;;;;;10.20;1.52;;;14.70;99.90;;;;;;6130285;23;20045;-77
2023/10/14 10:25:14;;;;;;;8.43;1.40;;;14.80;99.90;;;;;;6130325;23;20018;-79
2023/10/14 10:27:50;;;;;;;10.20;0.98;;;15.00;99.90;;;;;;6130265;23;20443;-79
2023/10/14 10:30:20;;;;;;;6.95;1.00;;;15.00;99.90;;;;;;6130054;23;20060;-77
2023/10/14 10:33:10;;;;;;;5.00;1.15;;;14.90;99.90;;;;;;6130426;23;20137;-80
2023/10/14 10:35:57;;;;;;;7.97;1.15;;;14.70;99.90;;;;;;6105667;23;20348;-80
2023/10/14 10:38:24;;;;;;;6.85;1.38;;;14.40;99.90;;;;;;6130359;23;20156;-78
2023/10/14 10:41:24;;;;;;;5.75;0.80;;;14.40;99.90;;;;;;6130326;23;20013;-79
2023/10/14 10:43:50;;;;;;;7.75;1.30;;;14.50;99.90;;;;;;6130249;23;20013;-78
2023/10/14 10:46:37;;;;;;;3.90;0.75;;;14.60;99.90;;;;;;6130226;23;20017;-78
2023/10/14 10:49:06;;;;;;;3.90;0.90;;;14.60;99.90;;;;;;6156112;23;20017;-81
2023/10/14 10:51:34;;;;;;;5.82;0.70;;;14.70;99.90;;;;;;6156520;23;20343;-80
2023/10/14 10:54:01;;;;;;;5.43;0.80;;;14.80;99.90;;;;;;6129139;23;20020;-76
2023/10/14 10:56:33;;;;;;;4.85;0.77;;;14.80;99.90;;;;;;6128557;23;20020;-77
2023/10/14 10:59:01;;;;;;;5.63;0.90;;;14.80;99.90;;;;;;6127930;23;20459;-79
2023/10/14 11:01:33;;;;;;;7.80;0.80;;;14.90;99.90;;;;;;6130575;23;20021;-78
2023/10/14 11:04:08;;;;;;;5.88;1.45;;;15.00;99.90;;;;;;6130232;23;20403;-77
2023/10/14 11:06:36;;;;;;;5.95;1.10;;;15.00;99.90;;;;;;6105754;23;20013;-78
2023/10/14 11:09:03;;;;;;;8.82;1.38;;;15.00;99.90;;;;;;6130393;23;20096;-79
2023/10/14 11:11:33;;;;;;;7.55;1.13;;;15.00;99.90;;;;;;6130223;23;20061;-80
2023/10/14 11:14:00;;;;;;;5.55;1.02;;;14.90;99.90;;;;;;6155144;23;20390;-77
2023/10/14 11:16:28;;;;;;;7.00;0.90;;;14.80;99.90;;;;;;6128958;23;20009;-77
2023/10/14 11:18:54;;;;;;;6.55;1.00;;;14.70;99.90;;;;;;6129918;23;20088;-78
2023/10/14 11:21:21;;;;;;;5.15;0.70;;;14.70;99.90;;;;;;6130333;23;20076;-78
2023/10/14 11:23:47;;;;;;;3.63;0.70;;;14.70;99.90;;;;;;6130091;23;20032;-78
2023/10/14 11:26:16;;;;;;;5.88;0.80;;;14.80;99.90;;;;;;6129976;23;20014;-76
2023/10/14 11:28:45;;;;;;;5.40;1.02;;;14.80;99.90;;;;;;6156004;23;20020;-82
2023/10/14 11:31:14;;;;;;;8.88;0.90;;;14.90;99.90;;;;;;6105439;23;20068;-79
2023/10/14 11:33:46;;;;;;;4.50;0.88;;;14.90;99.90;;;;;;6129463;23;20339;-77
2023/10/14 11:36:17;;;;;;;4.65;0.73;;;15.00;99.90;;;;;;6129134;23;20317;-79
2023/10/14 11:38:46;;;;;;;7.50;0.80;;;15.00;99.90;;;;;;6154586;23;20056;-79
2023/10/14 11:41:15;;;;;;;4.32;0.65;;;15.00;99.90;;;;;;6129378;23;20014;-78
2023/10/14 11:43:44;;;;;;;6.15;0.82;;;15.10;99.90;;;;;;6156032;23;20005;-77
2023/10/14 11:46:11;;;;;;;6.85;0.98;;;15.20;99.90;;;;;;6129440;23;20041;-78
2023/10/14 11:48:38;;;;;;;4.57;1.05;;;15.00;99.90;;;;;;6129956;23;20439;-79
2023/10/14 11:51:11;;;;;;;6.43;0.85;;;14.90;99.90;;;;;;6130239;23;20022;-76
2023/10/14 11:53:43;;;;;;;4.28;0.90;;;14.90;99.90;;;;;;6129520;23;20013;-79
2023/10/14 11:56:13;;;;;;;9.30;1.30;;;15.00;99.90;;;;;;6129339;23;20017;-77
2023/10/14 11:58:42;;;;;;;7.90;1.48;;;15.10;99.90;;;;;;6105281;23;20053;-80
2023/10/14 12:01:09;;;;;;;10.57;1.80;;;15.00;99.90;;;;;;6129778;23;20088;-80
2023/10/14 12:03:36;;;;;;;5.00;1.40;;;14.70;99.90;;;;;;6129752;23;20088;-80
2023/10/14 12:06:03;;;;;;;10.57;1.80;;;14.60;99.90;;;;;;6104509;23;20088;-78
2023/10/14 12:08:31;;;;;;;10.90;1.83;;;14.30;99.90;;;;;;6129759;23;20336;-75
2023/10/14 12:11:03;;;;;;;8.25;1.73;;;14.10;99.90;;;;;;6129753;23;20021;-77
2023/10/14 12:13:30;;;;;;;7.63;1.27;;;14.10;99.90;;;;;;6105233;23;20022;-80
2023/10/14 12:15:55;;;;;;;5.57;1.20;;;13.90;99.90;;;;;;6129612;23;20071;-78
2023/10/14 12:18:21;;;;;;;7.45;1.15;;;13.90;99.90;;;;;;6129925;23;20014;-80
2023/10/14 12:20:48;;;;;;;6.88;1.67;;;13.80;99.90;;;;;;6130112;23;20080;-78
2023/10/14 12:23:19;;;;;;;8.65;1.27;;;13.70;99.90;;;;;;6129657;23;20017;-81
2023/10/14 12:25:49;;;;;;;10.43;1.23;;;13.60;99.90;;;;;;6129541;23;20017;-80
2023/10/14 12:28:25;;;;;;;9.25;0.93;;;13.50;99.90;;;;;;6130219;23;20017;-80
2023/10/14 12:31:06;;;;;;;6.45;0.85;;;13.40;99.90;;;;;;6107630;23;20097;-78
2023/10/14 12:33:35;;;;;;;5.35;1.20;;;13.50;99.90;;;;;;6107187;23;20017;-80
2023/10/14 12:36:08;;;;;;;7.10;1.75;;;13.50;99.90;;;;;;6131155;23;20093;-79
2023/10/14 12:38:36;;;;;;;8.13;1.65;;;13.40;99.90;;;;;;6131147;23;20376;-80
2023/10/14 12:41:02;;;;;;;9.30;1.55;;;13.60;99.90;;;;;;6131530;23;20049;-78
2023/10/14 12:43:32;;;;;;;7.18;0.80;;;13.80;99.90;;;;;;6131297;23;20024;-75
2023/10/14 12:46:19;;;;;;;9.05;1.20;;;13.90;99.90;;;;;;6131267;23;20078;-81
2023/10/14 12:48:46;;;;;;;9.02;2.05;;;14.00;99.90;;;;;;6131005;23;20022;-78
2023/10/14 12:51:30;;;;;;;11.80;1.75;;;14.30;99.90;;;;;;6131334;23;20309;-76
2023/10/14 12:54:00;;;;;;;10.23;1.20;;;14.50;99.90;;;;;;6157616;23;20014;-76
2023/10/14 12:56:26;;;;;;;9.75;1.50;;;14.40;99.90;;;;;;6130834;23;20069;-76
2023/10/14 12:58:56;;;;;;;10.65;1.60;;;14.30;99.90;;;;;;6157457;23;20324;-79
2023/10/14 13:01:22;;;;;;;8.10;1.48;;;14.10;99.90;;;;;;6131871;23;20073;-78
2023/10/14 13:03:52;;;;;;;7.97;1.15;;;14.00;99.90;;;;;;6131116;23;20050;-79
2023/10/14 13:06:22;;;;;;;6.65;1.05;;;14.00;99.90;;;;;;6131079;23;20024;-79
2023/10/14 13:08:58;;;;;;;8.77;1.20;;;14.10;99.90;;;;;;6131116;23;20018;-79
2023/10/14 13:11:30;;;;;;;7.07;1.20;;;14.10;99.90;;;;;;6131376;23;20020;-80
2023/10/14 13:13:57;;;;;;;8.35;1.40;;;13.90;99.90;;;;;;6131039;23;20016;-79
2023/10/14 13:16:25;;;;;;;6.40;1.17;;;13.80;99.90;;;;;;6130975;23;20010;-79
2023/10/14 13:18:56;;;;;;;11.43;1.40;;;13.80;99.90;;;;;;6130978;23;20013;-76
2023/10/14 13:21:31;;;;;;;8.27;1.00;;;13.90;99.90;;;;;;6132541;23;20117;-79
2023/10/14 13:23:57;;;;;;;9.80;1.60;;;14.10;99.90;;;;;;6157414;23;20009;-78
2023/10/14 13:26:23;;;;;;;9.88;1.40;;;14.30;99.90;;;;;;6131622;23;20295;-80
2023/10/14 13:28:52;;;;;;;9.52;1.45;;;14.40;99.90;;;;;;6130621;23;20013;-75
2023/10/14 13:31:20;;;;;;;13.48;1.50;;;14.60;99.90;;;;;;6131723;23;20010;-81
2023/10/14 13:33:46;;;;;;;13.85;2.08;;;14.70;99.90;;;;;;6156775;23;20017;-80
2023/10/14 13:36:16;;;;;;;7.18;1.38;;;14.60;99.90;;;;;;6130484;23;20018;-79
2023/10/14 13:38:42;;;;;;;9.85;1.85;;;14.50;99.90;;;;;;6156882;23;20006;-79
2023/10/14 13:41:14;;;;;;;7.03;1.58;;;14.40;99.90;;;;;;6130553;23;20408;-77
2023/10/14 13:43:40;;;;;;;7.90;1.50;;;14.40;99.90;;;;;;6106273;23;20013;-77
2023/10/14 13:46:06;;;;;;;6.95;1.92;;;14.30;99.90;;;;;;6130476;23;20094;-78
2023/10/14 13:48:33;;;;;;;5.85;1.30;;;14.10;99.90;;;;;;6106282;23;20444;-81
2023/10/14 13:51:00;;;;;;;7.50;1.20;;;13.90;99.90;;;;;;6130321;23;20020;-79
2023/10/14 13:53:32;;;;;;;6.72;1.27;;;13.90;99.90;;;;;;6130519;23;20017;-78
2023/10/14 13:56:01;;;;;;;3.92;1.10;;;13.90;99.90;;;;;;6130315;23;20012;-80
2023/10/14 13:58:28;;;;;;;13.07;1.48;;;13.90;99.90;;;;;;6130620;23;20021;-80
2023/10/14 14:00:56;;;;;;;6.97;1.40;;;13.90;99.90;;;;;;6156713;23;20013;-80
2023/10/14 14:03:28;;;;;;;7.60;1.63;;;13.60;99.90;;;;;;6129667;23;20045;-80
2023/10/14 14:05:54;;;;;;;11.00;1.60;;;13.40;99.90;;;;;;6156919;23;20014;-78
2023/10/14 14:08:26;;;;;;;8.98;1.40;;;13.10;99.90;;;;;;6130401;23;20119;-78
2023/10/14 14:10:58;;;;;;;7.82;1.63;;;13.10;99.90;;;;;;6105687;23;20013;-77
2023/10/14 14:13:24;;;;;;;12.73;1.70;;;13.00;99.90;;;;;;6155803;23;20432;-81
2023/10/14 14:15:53;;;;;;;13.18;1.77;;;13.00;99.90;;;;;;6156829;23;20021;-77
2023/10/14 14:18:18;;;;;;;9.73;1.58;;;12.90;99.90;;;;;;6130265;23;20017;-80
2023/10/14 14:20:44;;;;;;;9.25;1.60;;;12.90;99.90;;;;;;6130375;23;20021;-81
2023/10/14 14:23:10;;;;;;;8.48;1.67;;;12.90;99.90;;;;;;6131354;23;20024;-78
2023/10/14 14:25:36;;;;;;;11.93;1.90;;;13.00;99.90;;;;;;6130443;23;20028;-80
2023/10/14 14:28:03;;;;;;;6.80;1.40;;;13.10;99.90;;;;;;6130222;23;20013;-78
2023/10/14 14:30:30;;;;;;;12.00;1.90;;;13.20;99.90;;;;;;6128111;23;20039;-75
2023/10/14 14:32:57;;;;;;;9.68;2.40;;;13.10;99.90;;;;;;6105706;23;20431;-78
2023/10/14 14:35:31;;;;;;;11.65;2.10;;;13.00;99.90;;;;;;6129337;23;20017;-79
2023/10/14 14:37:58;;;;;;;18.15;2.75;;;12.80;99.90;;;;;;6129007;23;20017;-80
2023/10/14 14:40:24;;;;;;;10.65;1.90;;;12.70;99.90;;;;;;6128736;23;20017;-77
2023/10/14 14:42:52;;;;;;;14.70;2.78;;;12.70;99.90;;;;;;6130227;23;20014;-79
2023/10/14 14:45:25;;;;;;;11.18;2.28;;;12.60;99.90;;;;;;6106116;23;20018;-81
2023/10/14 14:47:55;;;;;;;12.88;2.40;;;12.60;99.90;;;;;;6129997;23;20323;-79
2023/10/14 14:50:24;;;;;;;12.10;2.03;;;12.60;99.90;;;;;;6156012;23;20018;-79
2023/10/14 14:52:50;;;;;;;16.13;2.53;;;12.70;99.90;;;;;;6106013;23;20375;-80
2023/10/14 14:55:20;;;;;;;10.65;1.63;;;12.70;99.90;;;;;;6129772;23;20049;-83
2023/10/14 14:58:04;;;;;;;12.65;2.08;;;12.80;99.90;;;;;;6130500;23;20399;-78
2023/10/14 15:00:30;;;;;;;14.25;2.25;;;12.80;99.90;;;;;;6106026;23;20017;-78
2023/10/14 15:02:58;;;;;;;8.27;2.10;;;12.70;99.90;;;;;;6105576;23;20024;-81
2023/10/14 15:05:30;;;;;;;9.48;2.00;;;12.50;99.90;;;;;;6129807;23;20069;-78
2023/10/14 15:07:58;;;;;;;10.15;1.90;;;12.50;99.90;;;;;;6129835;23;20320;-78
2023/10/14 15:10:24;;;;;;;12.60;2.38;;;12.40;99.90;;;;;;6129868;23;20021;-77
2023/10/14 15:12:50;;;;;;;12.63;2.42;;;12.30;99.90;;;;;;6129603;23;20095;-76
2023/10/14 15:15:19;;;;;;;12.57;2.13;;;12.30;99.90;;;;;;6129628;23;20478;-78
2023/10/14 15:17:50;;;;;;;10.85;2.65;;;12.40;99.90;;;;;;6129922;23;20020;-82
2023/10/14 15:20:17;;;;;;;12.10;1.90;;;12.40;99.90;;;;;;6129641;23;20041;-80
2023/10/14 15:22:48;;;;;;;10.13;1.70;;;12.40;99.90;;;;;;6129884;23;20092;-78
2023/10/14 15:25:15;;;;;;;16.55;2.90;;;12.40;99.90;;;;;;6129767;23;20047;-76
2023/10/14 15:27:45;;;;;;;14.95;2.60;;;12.50;99.90;;;;;;6130119;23;20071;-76
2023/10/14 15:30:18;;;;;;;12.73;2.72;;;12.50;99.90;;;;;;6130160;23;20018;-80
2023/10/14 15:32:51;;;;;;;7.50;1.75;;;12.60;99.90;;;;;;6130063;23;20009;-79
2023/10/14 15:35:25;;;;;;;12.02;2.28;;;12.60;99.90;;;;;;6129724;23;20013;-78
2023/10/14 15:37:56;;;;;;;9.13;2.15;;;12.60;99.90;;;;;;6130078;23;20018;-82
2023/10/14 15:40:22;;;;;;;10.32;2.33;;;12.60;99.90;;;;;;6129898;23;20093;-81
2023/10/14 15:42:50;;;;;;;8.43;1.60;;;12.50;99.90;;;;;;6156138;23;20080;-76
2023/10/14 15:45:23;;;;;;;11.40;1.67;;;12.50;99.90;;;;;;6129712;23;20014;-78
2023/10/14 15:47:50;;;;;;;11.10;1.70;;;12.50;99.90;;;;;;6129947;23;20006;-80
2023/10/14 15:50:20;;;;;;;8.63;1.65;;;12.40;99.90;;;;;;6129615;23;20058;-79
2023/10/14 15:52:47;;;;;;;9.20;1.80;;;12.40;99.90;;;;;;6129674;23;20096;-78
2023/10/14 15:55:16;;;;;;;11.20;1.95;;;12.30;99.90;;;;;;6155646;23;20020;-83
2023/10/14 15:57:43;;;;;;;11.30;2.00;;;12.30;99.90;;;;;;6132832;23;20451;-77
2023/10/14 16:00:22;;;;;;;9.65;1.30;;;12.20;99.90;;;;;;6134635;23;20020;-78
2023/10/14 16:02:52;;;;;;;6.97;1.30;;;12.10;99.90;;;;;;6133982;23;20061;-79
2023/10/14 16:05:21;;;;;;;10.65;1.58;;;12.10;99.90;;;;;;6108110;23;20443;-78
2023/10/14 16:07:49;;;;;;;11.75;2.17;;;12.00;99.90;;;;;;6132778;23;20018;-79